sensor_id;sensor_type;location;lat;lon;timestamp;P1;durP1;ratioP1;P2;durP2;ratioP2
19312;SDS011;9791;50.820;4.406;2022-12-29T00:01:07;3.85;;;1.30;;
19312;SDS011;9791;50.820;4.406;2022-12-29T00:03:33;2.22;;;1.17;;
19312;SDS011;9791;50.820;4.406;2022-12-29T00:05:59;4.68;;;1.38;;
19312;SDS011;9791;50.820;4.406;2022-12-29T00:08:27;4.03;;;1.35;;
19312;SDS011;9791;50.820;4.406;2022-12-29T00:11:26;2.63;;;1.20;;
19312;SDS011;9791;50.820;4.406;2022-12-29T00:13:50;2.55;;;1.13;;
19312;SDS011;9791;50.820;4.406;2022-12-29T00:16:35;2.40;;;1.05;;
19312;SDS011;9791;50.820;4.406;2022-12-29T00:19:03;1.98;;;0.93;;
19312;SDS011;9791;50.820;4.406;2022-12-29T00:21:29;2.03;;;1.00;;
19312;SDS011;9791;50.820;4.406;2022-12-29T00:24:14;3.78;;;1.17;;
19312;SDS011;9791;50.820;4.406;2022-12-29T00:29:47;5.13;;;1.00;;
19312;SDS011;9791;50.820;4.406;2022-12-29T00:32:32;2.40;;;1.08;;
19312;SDS011;9791;50.820;4.406;2022-12-29T00:37:49;1.83;;;0.90;;
19312;SDS011;9791;50.820;4.406;2022-12-29T00:40:34;3.55;;;1.50;;
19312;SDS011;9791;50.820;4.406;2022-12-29T00:43:19;2.58;;;1.15;;
19312;SDS011;9791;50.820;4.406;2022-12-29T00:46:03;2.63;;;1.23;;
19312;SDS011;9791;50.820;4.406;2022-12-29T00:48:29;3.80;;;1.10;;
19312;SDS011;9791;50.820;4.406;2022-12-29T00:51:14;3.05;;;1.40;;
19312;SDS011;9791;50.820;4.406;2022-12-29T00:53:40;3.13;;;1.20;;
19312;SDS011;9791;50.820;4.406;2022-12-29T00:56:06;4.68;;;1.08;;
19312;SDS011;9791;50.820;4.406;2022-12-29T00:58:32;1.80;;;0.80;;
19312;SDS011;9791;50.820;4.406;2022-12-29T01:01:02;4.15;;;1.10;;
19312;SDS011;9791;50.820;4.406;2022-12-29T01:03:28;4.07;;;1.10;;
19312;SDS011;9791;50.820;4.406;2022-12-29T01:05:54;4.35;;;1.60;;
19312;SDS011;9791;50.820;4.406;2022-12-29T01:08:20;4.88;;;1.20;;
19312;SDS011;9791;50.820;4.406;2022-12-29T01:10:46;2.40;;;0.98;;
19312;SDS011;9791;50.820;4.406;2022-12-29T01:13:12;3.95;;;1.17;;
19312;SDS011;9791;50.820;4.406;2022-12-29T01:15:38;4.15;;;1.17;;
19312;SDS011;9791;50.820;4.406;2022-12-29T01:18:04;4.32;;;1.23;;
19312;SDS011;9791;50.820;4.406;2022-12-29T01:20:30;4.97;;;1.20;;
19312;SDS011;9791;50.820;4.406;2022-12-29T01:22:56;3.05;;;1.00;;
19312;SDS011;9791;50.820;4.406;2022-12-29T01:25:22;4.13;;;1.30;;
19312;SDS011;9791;50.820;4.406;2022-12-29T01:27:49;4.60;;;1.13;;
19312;SDS011;9791;50.820;4.406;2022-12-29T01:30:15;5.70;;;1.38;;
19312;SDS011;9791;50.820;4.406;2022-12-29T01:32:41;2.53;;;1.20;;
19312;SDS011;9791;50.820;4.406;2022-12-29T01:35:07;2.13;;;1.02;;
19312;SDS011;9791;50.820;4.406;2022-12-29T01:37:33;5.50;;;1.42;;
19312;SDS011;9791;50.820;4.406;2022-12-29T01:39:59;3.47;;;1.20;;
19312;SDS011;9791;50.820;4.406;2022-12-29T01:42:25;4.90;;;1.50;;
19312;SDS011;9791;50.820;4.406;2022-12-29T01:44:52;5.25;;;1.42;;
19312;SDS011;9791;50.820;4.406;2022-12-29T01:48:04;4.20;;;1.17;;
19312;SDS011;9791;50.820;4.406;2022-12-29T01:50:27;3.90;;;1.30;;
19312;SDS011;9791;50.820;4.406;2022-12-29T01:53:13;3.70;;;1.10;;
19312;SDS011;9791;50.820;4.406;2022-12-29T01:55:42;4.25;;;1.40;;
19312;SDS011;9791;50.820;4.406;2022-12-29T01:58:09;3.15;;;0.98;;
19312;SDS011;9791;50.820;4.406;2022-12-29T02:00:36;3.08;;;1.10;;
19312;SDS011;9791;50.820;4.406;2022-12-29T02:03:02;3.70;;;1.10;;
19312;SDS011;9791;50.820;4.406;2022-12-29T02:07:59;2.97;;;0.90;;
19312;SDS011;9791;50.820;4.406;2022-12-29T02:10:26;6.05;;;0.90;;
19312;SDS011;9791;50.820;4.406;2022-12-29T02:12:53;2.78;;;0.90;;
19312;SDS011;9791;50.820;4.406;2022-12-29T02:15:21;1.60;;;0.80;;
19312;SDS011;9791;50.820;4.406;2022-12-29T02:21:03;2.17;;;0.90;;
19312;SDS011;9791;50.820;4.406;2022-12-29T02:23:44;3.83;;;0.90;;
19312;SDS011;9791;50.820;4.406;2022-12-29T02:31:40;2.67;;;0.95;;
19312;SDS011;9791;50.820;4.406;2022-12-29T02:34:14;3.03;;;0.93;;
19312;SDS011;9791;50.820;4.406;2022-12-29T02:39:20;5.25;;;0.90;;
19312;SDS011;9791;50.820;4.406;2022-12-29T02:41:56;5.35;;;0.95;;
19312;SDS011;9791;50.820;4.406;2022-12-29T02:44:28;3.78;;;1.30;;
19312;SDS011;9791;50.820;4.406;2022-12-29T02:46:58;4.88;;;1.10;;
19312;SDS011;9791;50.820;4.406;2022-12-29T02:49:31;2.83;;;0.70;;
19312;SDS011;9791;50.820;4.406;2022-12-29T02:52:01;3.08;;;0.88;;
19312;SDS011;9791;50.820;4.406;2022-12-29T02:54:28;3.70;;;0.95;;
19312;SDS011;9791;50.820;4.406;2022-12-29T02:59:35;1.92;;;0.70;;
19312;SDS011;9791;50.820;4.406;2022-12-29T03:02:14;4.22;;;0.90;;
19312;SDS011;9791;50.820;4.406;2022-12-29T03:15:30;9.05;;;1.20;;
19312;SDS011;9791;50.820;4.406;2022-12-29T03:18:21;5.25;;;1.10;;
19312;SDS011;9791;50.820;4.406;2022-12-29T03:20:59;5.15;;;0.98;;
19312;SDS011;9791;50.820;4.406;2022-12-29T03:23:29;3.85;;;1.00;;
19312;SDS011;9791;50.820;4.406;2022-12-29T03:25:56;2.97;;;0.90;;
19312;SDS011;9791;50.820;4.406;2022-12-29T03:28:24;3.60;;;0.90;;
19312;SDS011;9791;50.820;4.406;2022-12-29T03:30:51;4.60;;;1.00;;
19312;SDS011;9791;50.820;4.406;2022-12-29T03:33:22;6.97;;;1.08;;
19312;SDS011;9791;50.820;4.406;2022-12-29T03:35:49;4.32;;;0.80;;
19312;SDS011;9791;50.820;4.406;2022-12-29T03:40:49;4.50;;;1.10;;
19312;SDS011;9791;50.820;4.406;2022-12-29T03:43:16;4.05;;;0.88;;
19312;SDS011;9791;50.820;4.406;2022-12-29T03:45:42;2.53;;;0.88;;
19312;SDS011;9791;50.820;4.406;2022-12-29T03:48:08;4.07;;;1.23;;
19312;SDS011;9791;50.820;4.406;2022-12-29T03:50:34;4.80;;;1.25;;
19312;SDS011;9791;50.820;4.406;2022-12-29T03:53:00;3.67;;;1.25;;
19312;SDS011;9791;50.820;4.406;2022-12-29T03:55:27;7.70;;;1.20;;
19312;SDS011;9791;50.820;4.406;2022-12-29T03:57:53;7.22;;;1.10;;
19312;SDS011;9791;50.820;4.406;2022-12-29T04:00:19;7.03;;;1.42;;
19312;SDS011;9791;50.820;4.406;2022-12-29T04:02:45;3.83;;;1.48;;
19312;SDS011;9791;50.820;4.406;2022-12-29T04:05:11;6.30;;;1.10;;
19312;SDS011;9791;50.820;4.406;2022-12-29T04:07:37;5.82;;;1.40;;
19312;SDS011;9791;50.820;4.406;2022-12-29T04:10:03;2.33;;;0.95;;
19312;SDS011;9791;50.820;4.406;2022-12-29T04:12:29;5.80;;;1.30;;
19312;SDS011;9791;50.820;4.406;2022-12-29T04:14:55;5.10;;;1.25;;
19312;SDS011;9791;50.820;4.406;2022-12-29T04:17:21;5.05;;;1.42;;
19312;SDS011;9791;50.820;4.406;2022-12-29T04:19:48;4.57;;;1.10;;
19312;SDS011;9791;50.820;4.406;2022-12-29T04:22:14;5.03;;;1.17;;
19312;SDS011;9791;50.820;4.406;2022-12-29T04:24:40;6.85;;;1.30;;
19312;SDS011;9791;50.820;4.406;2022-12-29T04:27:06;4.22;;;1.17;;
19312;SDS011;9791;50.820;4.406;2022-12-29T04:29:32;7.68;;;1.40;;
19312;SDS011;9791;50.820;4.406;2022-12-29T04:31:58;5.38;;;1.30;;
19312;SDS011;9791;50.820;4.406;2022-12-29T04:34:24;5.88;;;1.30;;
19312;SDS011;9791;50.820;4.406;2022-12-29T04:36:50;5.57;;;1.05;;
19312;SDS011;9791;50.820;4.406;2022-12-29T04:39:16;5.03;;;0.95;;
19312;SDS011;9791;50.820;4.406;2022-12-29T04:41:42;8.57;;;1.30;;
19312;SDS011;9791;50.820;4.406;2022-12-29T04:44:08;6.75;;;1.35;;
19312;SDS011;9791;50.820;4.406;2022-12-29T04:46:34;6.50;;;1.63;;
19312;SDS011;9791;50.820;4.406;2022-12-29T04:49:00;9.48;;;1.27;;
19312;SDS011;9791;50.820;4.406;2022-12-29T04:51:32;5.63;;;1.90;;
19312;SDS011;9791;50.820;4.406;2022-12-29T04:53:58;9.15;;;1.70;;
19312;SDS011;9791;50.820;4.406;2022-12-29T04:56:25;7.63;;;1.58;;
19312;SDS011;9791;50.820;4.406;2022-12-29T04:58:51;6.68;;;1.65;;
19312;SDS011;9791;50.820;4.406;2022-12-29T05:01:17;6.68;;;1.50;;
19312;SDS011;9791;50.820;4.406;2022-12-29T05:03:43;6.80;;;1.33;;
19312;SDS011;9791;50.820;4.406;2022-12-29T05:06:09;6.20;;;1.15;;
19312;SDS011;9791;50.820;4.406;2022-12-29T05:08:35;9.43;;;1.77;;
19312;SDS011;9791;50.820;4.406;2022-12-29T05:11:01;6.47;;;1.40;;
19312;SDS011;9791;50.820;4.406;2022-12-29T05:13:27;4.50;;;1.20;;
19312;SDS011;9791;50.820;4.406;2022-12-29T05:15:53;6.57;;;1.50;;
19312;SDS011;9791;50.820;4.406;2022-12-29T05:18:19;6.28;;;1.45;;
19312;SDS011;9791;50.820;4.406;2022-12-29T05:20:45;6.35;;;1.33;;
19312;SDS011;9791;50.820;4.406;2022-12-29T05:23:11;8.35;;;1.48;;
19312;SDS011;9791;50.820;4.406;2022-12-29T05:25:37;9.35;;;1.60;;
19312;SDS011;9791;50.820;4.406;2022-12-29T05:28:03;7.35;;;1.40;;
19312;SDS011;9791;50.820;4.406;2022-12-29T05:30:29;8.90;;;1.73;;
19312;SDS011;9791;50.820;4.406;2022-12-29T05:32:55;7.50;;;1.58;;
19312;SDS011;9791;50.820;4.406;2022-12-29T05:35:21;6.90;;;1.48;;
19312;SDS011;9791;50.820;4.406;2022-12-29T05:37:47;7.50;;;1.35;;
19312;SDS011;9791;50.820;4.406;2022-12-29T05:40:13;6.32;;;1.80;;
19312;SDS011;9791;50.820;4.406;2022-12-29T05:42:40;5.93;;;1.30;;
19312;SDS011;9791;50.820;4.406;2022-12-29T05:45:06;6.82;;;1.40;;
19312;SDS011;9791;50.820;4.406;2022-12-29T05:47:32;10.63;;;1.55;;
19312;SDS011;9791;50.820;4.406;2022-12-29T05:49:59;9.27;;;1.80;;
19312;SDS011;9791;50.820;4.406;2022-12-29T05:52:25;8.60;;;1.83;;
19312;SDS011;9791;50.820;4.406;2022-12-29T05:54:51;7.32;;;1.58;;
19312;SDS011;9791;50.820;4.406;2022-12-29T05:57:17;10.10;;;2.17;;
19312;SDS011;9791;50.820;4.406;2022-12-29T05:59:43;13.23;;;1.77;;
19312;SDS011;9791;50.820;4.406;2022-12-29T06:02:09;7.43;;;2.25;;
19312;SDS011;9791;50.820;4.406;2022-12-29T06:04:35;8.45;;;2.00;;
19312;SDS011;9791;50.820;4.406;2022-12-29T06:07:01;7.50;;;1.70;;
19312;SDS011;9791;50.820;4.406;2022-12-29T06:09:28;5.80;;;1.60;;
19312;SDS011;9791;50.820;4.406;2022-12-29T06:11:54;7.72;;;1.83;;
19312;SDS011;9791;50.820;4.406;2022-12-29T06:14:20;8.70;;;1.67;;
19312;SDS011;9791;50.820;4.406;2022-12-29T06:16:46;12.45;;;1.80;;
19312;SDS011;9791;50.820;4.406;2022-12-29T06:19:12;7.72;;;1.83;;
19312;SDS011;9791;50.820;4.406;2022-12-29T06:21:38;9.88;;;2.40;;
19312;SDS011;9791;50.820;4.406;2022-12-29T06:24:04;5.88;;;1.52;;
19312;SDS011;9791;50.820;4.406;2022-12-29T06:26:30;6.53;;;1.60;;
19312;SDS011;9791;50.820;4.406;2022-12-29T06:28:56;7.30;;;1.63;;
19312;SDS011;9791;50.820;4.406;2022-12-29T06:31:22;10.05;;;2.35;;
19312;SDS011;9791;50.820;4.406;2022-12-29T06:33:49;6.60;;;1.45;;
19312;SDS011;9791;50.820;4.406;2022-12-29T06:36:15;5.72;;;1.60;;
19312;SDS011;9791;50.820;4.406;2022-12-29T06:38:41;9.25;;;2.10;;
19312;SDS011;9791;50.820;4.406;2022-12-29T06:41:07;6.60;;;1.50;;
19312;SDS011;9791;50.820;4.406;2022-12-29T06:43:33;8.40;;;1.77;;
19312;SDS011;9791;50.820;4.406;2022-12-29T06:46:00;8.25;;;1.73;;
19312;SDS011;9791;50.820;4.406;2022-12-29T06:48:27;6.75;;;1.95;;
19312;SDS011;9791;50.820;4.406;2022-12-29T06:50:53;8.10;;;1.67;;
19312;SDS011;9791;50.820;4.406;2022-12-29T06:53:19;8.93;;;2.05;;
19312;SDS011;9791;50.820;4.406;2022-12-29T06:55:45;6.20;;;1.50;;
19312;SDS011;9791;50.820;4.406;2022-12-29T06:58:11;6.93;;;1.95;;
19312;SDS011;9791;50.820;4.406;2022-12-29T07:00:37;8.18;;;1.50;;
19312;SDS011;9791;50.820;4.406;2022-12-29T07:03:03;9.07;;;2.00;;
19312;SDS011;9791;50.820;4.406;2022-12-29T07:05:29;9.55;;;2.10;;
19312;SDS011;9791;50.820;4.406;2022-12-29T07:07:57;9.32;;;2.05;;
19312;SDS011;9791;50.820;4.406;2022-12-29T07:10:24;10.98;;;1.85;;
19312;SDS011;9791;50.820;4.406;2022-12-29T07:12:50;7.43;;;1.77;;
19312;SDS011;9791;50.820;4.406;2022-12-29T07:15:16;8.52;;;1.60;;
19312;SDS011;9791;50.820;4.406;2022-12-29T07:17:42;8.55;;;2.05;;
19312;SDS011;9791;50.820;4.406;2022-12-29T07:20:09;10.38;;;1.73;;
19312;SDS011;9791;50.820;4.406;2022-12-29T07:22:35;10.00;;;1.73;;
19312;SDS011;9791;50.820;4.406;2022-12-29T07:25:01;9.77;;;1.85;;
19312;SDS011;9791;50.820;4.406;2022-12-29T07:27:28;9.85;;;1.73;;
19312;SDS011;9791;50.820;4.406;2022-12-29T07:29:54;7.93;;;2.00;;
19312;SDS011;9791;50.820;4.406;2022-12-29T07:32:20;9.55;;;1.60;;
19312;SDS011;9791;50.820;4.406;2022-12-29T07:34:46;9.75;;;2.40;;
19312;SDS011;9791;50.820;4.406;2022-12-29T07:37:12;6.05;;;1.55;;
19312;SDS011;9791;50.820;4.406;2022-12-29T07:39:39;10.02;;;1.85;;
19312;SDS011;9791;50.820;4.406;2022-12-29T07:42:05;11.05;;;2.70;;
19312;SDS011;9791;50.820;4.406;2022-12-29T07:44:31;16.58;;;2.47;;
19312;SDS011;9791;50.820;4.406;2022-12-29T07:46:57;8.75;;;2.13;;
19312;SDS011;9791;50.820;4.406;2022-12-29T07:49:23;7.97;;;1.92;;
19312;SDS011;9791;50.820;4.406;2022-12-29T07:51:49;11.45;;;2.67;;
19312;SDS011;9791;50.820;4.406;2022-12-29T07:54:15;9.18;;;2.05;;
19312;SDS011;9791;50.820;4.406;2022-12-29T07:56:43;8.85;;;2.15;;
19312;SDS011;9791;50.820;4.406;2022-12-29T07:59:09;8.55;;;1.88;;
19312;SDS011;9791;50.820;4.406;2022-12-29T08:01:37;10.05;;;2.03;;
19312;SDS011;9791;50.820;4.406;2022-12-29T08:04:03;14.20;;;2.97;;
19312;SDS011;9791;50.820;4.406;2022-12-29T08:06:29;6.97;;;1.77;;
19312;SDS011;9791;50.820;4.406;2022-12-29T08:08:55;7.30;;;1.80;;
19312;SDS011;9791;50.820;4.406;2022-12-29T08:11:22;7.85;;;1.95;;
19312;SDS011;9791;50.820;4.406;2022-12-29T08:13:48;7.82;;;2.08;;
19312;SDS011;9791;50.820;4.406;2022-12-29T08:16:14;8.50;;;2.00;;
19312;SDS011;9791;50.820;4.406;2022-12-29T08:18:40;10.07;;;1.65;;
19312;SDS011;9791;50.820;4.406;2022-12-29T08:21:06;10.63;;;2.47;;
19312;SDS011;9791;50.820;4.406;2022-12-29T08:23:32;10.00;;;2.17;;
19312;SDS011;9791;50.820;4.406;2022-12-29T08:25:58;10.68;;;1.80;;
19312;SDS011;9791;50.820;4.406;2022-12-29T08:28:25;11.10;;;2.03;;
19312;SDS011;9791;50.820;4.406;2022-12-29T08:30:51;6.88;;;1.65;;
19312;SDS011;9791;50.820;4.406;2022-12-29T08:33:17;10.75;;;2.30;;
19312;SDS011;9791;50.820;4.406;2022-12-29T08:35:43;7.35;;;1.80;;
19312;SDS011;9791;50.820;4.406;2022-12-29T08:38:09;6.45;;;1.60;;
19312;SDS011;9791;50.820;4.406;2022-12-29T08:40:36;9.55;;;2.22;;
19312;SDS011;9791;50.820;4.406;2022-12-29T08:43:02;9.18;;;2.10;;
19312;SDS011;9791;50.820;4.406;2022-12-29T08:45:28;12.55;;;2.28;;
19312;SDS011;9791;50.820;4.406;2022-12-29T08:47:54;13.30;;;2.72;;
19312;SDS011;9791;50.820;4.406;2022-12-29T08:50:20;12.63;;;2.60;;
19312;SDS011;9791;50.820;4.406;2022-12-29T08:52:46;8.43;;;1.83;;
19312;SDS011;9791;50.820;4.406;2022-12-29T08:55:12;9.43;;;1.90;;
19312;SDS011;9791;50.820;4.406;2022-12-29T08:57:38;6.88;;;1.80;;
19312;SDS011;9791;50.820;4.406;2022-12-29T09:00:04;10.40;;;2.28;;
19312;SDS011;9791;50.820;4.406;2022-12-29T09:02:31;13.00;;;2.28;;
19312;SDS011;9791;50.820;4.406;2022-12-29T09:04:57;9.05;;;1.70;;
19312;SDS011;9791;50.820;4.406;2022-12-29T09:07:24;9.18;;;2.03;;
19312;SDS011;9791;50.820;4.406;2022-12-29T09:09:50;10.38;;;2.13;;
19312;SDS011;9791;50.820;4.406;2022-12-29T09:12:16;10.00;;;2.58;;
19312;SDS011;9791;50.820;4.406;2022-12-29T09:14:42;9.45;;;2.40;;
19312;SDS011;9791;50.820;4.406;2022-12-29T09:17:09;9.40;;;2.67;;
19312;SDS011;9791;50.820;4.406;2022-12-29T09:19:54;11.52;;;2.70;;
19312;SDS011;9791;50.820;4.406;2022-12-29T09:22:20;9.23;;;2.15;;
19312;SDS011;9791;50.820;4.406;2022-12-29T09:24:46;11.23;;;3.15;;
19312;SDS011;9791;50.820;4.406;2022-12-29T09:27:12;12.48;;;2.22;;
19312;SDS011;9791;50.820;4.406;2022-12-29T09:29:38;7.43;;;2.17;;
19312;SDS011;9791;50.820;4.406;2022-12-29T09:32:04;9.80;;;2.28;;
19312;SDS011;9791;50.820;4.406;2022-12-29T09:34:30;13.75;;;2.60;;
19312;SDS011;9791;50.820;4.406;2022-12-29T09:36:56;10.23;;;2.13;;
19312;SDS011;9791;50.820;4.406;2022-12-29T09:39:22;14.25;;;2.75;;
19312;SDS011;9791;50.820;4.406;2022-12-29T09:46:50;11.48;;;2.20;;
19312;SDS011;9791;50.820;4.406;2022-12-29T09:51:53;10.38;;;2.15;;
19312;SDS011;9791;50.820;4.406;2022-12-29T09:57:04;11.60;;;2.28;;
19312;SDS011;9791;50.820;4.406;2022-12-29T09:59:38;12.85;;;2.33;;
19312;SDS011;9791;50.820;4.406;2022-12-29T10:04:50;12.43;;;2.60;;
19312;SDS011;9791;50.820;4.406;2022-12-29T10:10:14;14.07;;;2.22;;
19312;SDS011;9791;50.820;4.406;2022-12-29T10:12:53;9.43;;;2.33;;
19312;SDS011;9791;50.820;4.406;2022-12-29T10:15:31;10.20;;;2.50;;
19312;SDS011;9791;50.820;4.406;2022-12-29T10:25:59;11.25;;;2.33;;
19312;SDS011;9791;50.820;4.406;2022-12-29T10:28:39;8.00;;;1.90;;
19312;SDS011;9791;50.820;4.406;2022-12-29T10:31:09;10.32;;;2.60;;
19312;SDS011;9791;50.820;4.406;2022-12-29T10:33:39;14.40;;;2.72;;
19312;SDS011;9791;50.820;4.406;2022-12-29T10:36:29;12.50;;;2.13;;
19312;SDS011;9791;50.820;4.406;2022-12-29T10:41:49;15.85;;;3.08;;
19312;SDS011;9791;50.820;4.406;2022-12-29T10:44:16;8.25;;;1.95;;
19312;SDS011;9791;50.820;4.406;2022-12-29T10:46:43;10.45;;;2.33;;
19312;SDS011;9791;50.820;4.406;2022-12-29T10:49:14;9.30;;;2.90;;
19312;SDS011;9791;50.820;4.406;2022-12-29T10:51:42;10.40;;;2.38;;
19312;SDS011;9791;50.820;4.406;2022-12-29T10:56:38;8.57;;;2.30;;
19312;SDS011;9791;50.820;4.406;2022-12-29T10:59:28;8.02;;;1.92;;
19312;SDS011;9791;50.820;4.406;2022-12-29T11:01:55;16.05;;;2.90;;
19312;SDS011;9791;50.820;4.406;2022-12-29T11:06:49;11.77;;;2.35;;
19312;SDS011;9791;50.820;4.406;2022-12-29T11:09:16;10.93;;;3.10;;
19312;SDS011;9791;50.820;4.406;2022-12-29T11:11:45;11.52;;;2.67;;
19312;SDS011;9791;50.820;4.406;2022-12-29T11:14:18;15.15;;;2.53;;
19312;SDS011;9791;50.820;4.406;2022-12-29T11:16:44;11.65;;;2.40;;
19312;SDS011;9791;50.820;4.406;2022-12-29T11:19:20;8.73;;;2.25;;
19312;SDS011;9791;50.820;4.406;2022-12-29T11:21:47;9.50;;;2.03;;
19312;SDS011;9791;50.820;4.406;2022-12-29T11:26:46;9.55;;;3.13;;
19312;SDS011;9791;50.820;4.406;2022-12-29T11:29:28;6.45;;;2.00;;
19312;SDS011;9791;50.820;4.406;2022-12-29T11:31:58;10.98;;;2.30;;
19312;SDS011;9791;50.820;4.406;2022-12-29T11:34:25;13.23;;;2.15;;
19312;SDS011;9791;50.820;4.406;2022-12-29T11:36:58;16.17;;;2.17;;
19312;SDS011;9791;50.820;4.406;2022-12-29T11:39:44;12.45;;;2.00;;
19312;SDS011;9791;50.820;4.406;2022-12-29T11:42:16;9.18;;;2.38;;
19312;SDS011;9791;50.820;4.406;2022-12-29T11:44:44;9.35;;;1.80;;
19312;SDS011;9791;50.820;4.406;2022-12-29T11:47:12;7.88;;;2.10;;
19312;SDS011;9791;50.820;4.406;2022-12-29T11:49:39;6.97;;;2.22;;
19312;SDS011;9791;50.820;4.406;2022-12-29T11:52:06;11.18;;;2.40;;
19312;SDS011;9791;50.820;4.406;2022-12-29T11:54:33;15.18;;;2.33;;
19312;SDS011;9791;50.820;4.406;2022-12-29T11:57:08;11.27;;;2.65;;
19312;SDS011;9791;50.820;4.406;2022-12-29T11:59:37;11.88;;;2.70;;
19312;SDS011;9791;50.820;4.406;2022-12-29T12:02:11;13.02;;;2.45;;
19312;SDS011;9791;50.820;4.406;2022-12-29T12:04:39;11.73;;;2.33;;
19312;SDS011;9791;50.820;4.406;2022-12-29T12:07:16;8.57;;;2.15;;
19312;SDS011;9791;50.820;4.406;2022-12-29T12:12:09;10.05;;;2.50;;
19312;SDS011;9791;50.820;4.406;2022-12-29T12:14:43;8.02;;;2.35;;
19312;SDS011;9791;50.820;4.406;2022-12-29T12:17:14;10.90;;;2.95;;
19312;SDS011;9791;50.820;4.406;2022-12-29T12:30:11;9.82;;;2.50;;
19312;SDS011;9791;50.820;4.406;2022-12-29T12:35:13;9.20;;;2.25;;
19312;SDS011;9791;50.820;4.406;2022-12-29T12:43:02;7.72;;;2.10;;
19312;SDS011;9791;50.820;4.406;2022-12-29T13:08:37;7.03;;;2.03;;
19312;SDS011;9791;50.820;4.406;2022-12-29T13:11:16;16.80;;;2.42;;
19312;SDS011;9791;50.820;4.406;2022-12-29T13:24:26;7.85;;;2.05;;
19312;SDS011;9791;50.820;4.406;2022-12-29T13:26:57;8.13;;;2.67;;
19312;SDS011;9791;50.820;4.406;2022-12-29T13:29:32;11.15;;;1.98;;
19312;SDS011;9791;50.820;4.406;2022-12-29T13:37:15;10.65;;;2.35;;
19312;SDS011;9791;50.820;4.406;2022-12-29T13:39:45;11.32;;;2.17;;
19312;SDS011;9791;50.820;4.406;2022-12-29T13:42:13;10.30;;;2.22;;
19312;SDS011;9791;50.820;4.406;2022-12-29T13:44:51;10.73;;;2.17;;
19312;SDS011;9791;50.820;4.406;2022-12-29T13:47:25;8.57;;;2.30;;
19312;SDS011;9791;50.820;4.406;2022-12-29T13:49:52;9.55;;;2.35;;
19312;SDS011;9791;50.820;4.406;2022-12-29T13:52:28;11.35;;;2.22;;
19312;SDS011;9791;50.820;4.406;2022-12-29T13:57:45;13.07;;;2.20;;
19312;SDS011;9791;50.820;4.406;2022-12-29T14:00:21;12.02;;;2.67;;
19312;SDS011;9791;50.820;4.406;2022-12-29T14:05:32;9.85;;;2.40;;
19312;SDS011;9791;50.820;4.406;2022-12-29T14:08:03;10.38;;;2.20;;
19312;SDS011;9791;50.820;4.406;2022-12-29T14:12:59;14.63;;;2.78;;
19312;SDS011;9791;50.820;4.406;2022-12-29T14:15:26;14.70;;;3.08;;
19312;SDS011;9791;50.820;4.406;2022-12-29T14:18:05;11.20;;;2.28;;
19312;SDS011;9791;50.820;4.406;2022-12-29T14:20:35;12.60;;;2.50;;
19312;SDS011;9791;50.820;4.406;2022-12-29T14:23:47;8.68;;;2.95;;
19312;SDS011;9791;50.820;4.406;2022-12-29T14:28:37;10.13;;;2.50;;
19312;SDS011;9791;50.820;4.406;2022-12-29T14:31:04;12.43;;;2.58;;
19312;SDS011;9791;50.820;4.406;2022-12-29T14:33:31;13.85;;;2.70;;
19312;SDS011;9791;50.820;4.406;2022-12-29T14:36:18;12.75;;;3.20;;
19312;SDS011;9791;50.820;4.406;2022-12-29T14:38:44;12.63;;;2.90;;
19312;SDS011;9791;50.820;4.406;2022-12-29T14:44:10;11.30;;;2.97;;
19312;SDS011;9791;50.820;4.406;2022-12-29T14:46:44;12.57;;;3.20;;
19312;SDS011;9791;50.820;4.406;2022-12-29T14:49:30;13.55;;;2.47;;
19312;SDS011;9791;50.820;4.406;2022-12-29T14:52:04;14.75;;;3.38;;
19312;SDS011;9791;50.820;4.406;2022-12-29T14:57:08;11.70;;;2.33;;
19312;SDS011;9791;50.820;4.406;2022-12-29T14:59:36;12.65;;;3.10;;
19312;SDS011;9791;50.820;4.406;2022-12-29T15:02:03;8.88;;;2.50;;
19312;SDS011;9791;50.820;4.406;2022-12-29T15:04:30;11.70;;;2.47;;
19312;SDS011;9791;50.820;4.406;2022-12-29T15:06:57;10.93;;;2.70;;
19312;SDS011;9791;50.820;4.406;2022-12-29T15:11:52;7.60;;;2.10;;
19312;SDS011;9791;50.820;4.406;2022-12-29T15:14:35;6.55;;;1.80;;
19312;SDS011;9791;50.820;4.406;2022-12-29T15:17:02;6.60;;;1.80;;
19312;SDS011;9791;50.820;4.406;2022-12-29T15:19:35;6.30;;;1.70;;
19312;SDS011;9791;50.820;4.406;2022-12-29T15:22:02;7.63;;;1.88;;
19312;SDS011;9791;50.820;4.406;2022-12-29T15:24:28;7.20;;;1.40;;
19312;SDS011;9791;50.820;4.406;2022-12-29T15:26:54;5.95;;;1.10;;
19312;SDS011;9791;50.820;4.406;2022-12-29T15:29:37;8.52;;;1.67;;
19312;SDS011;9791;50.820;4.406;2022-12-29T15:34:46;6.13;;;1.30;;
19312;SDS011;9791;50.820;4.406;2022-12-29T15:37:20;11.32;;;1.63;;
19312;SDS011;9791;50.820;4.406;2022-12-29T15:39:47;6.60;;;1.70;;
19312;SDS011;9791;50.820;4.406;2022-12-29T15:44:48;5.05;;;1.52;;
19312;SDS011;9791;50.820;4.406;2022-12-29T15:47:15;5.47;;;1.67;;
19312;SDS011;9791;50.820;4.406;2022-12-29T15:49:43;4.40;;;1.30;;
19312;SDS011;9791;50.820;4.406;2022-12-29T15:52:09;7.60;;;1.85;;
19312;SDS011;9791;50.820;4.406;2022-12-29T15:54:36;7.35;;;1.77;;
19312;SDS011;9791;50.820;4.406;2022-12-29T15:57:02;7.82;;;2.00;;
19312;SDS011;9791;50.820;4.406;2022-12-29T15:59:30;5.70;;;1.80;;
19312;SDS011;9791;50.820;4.406;2022-12-29T16:01:57;9.00;;;2.33;;
19312;SDS011;9791;50.820;4.406;2022-12-29T16:04:28;8.68;;;2.30;;
19312;SDS011;9791;50.820;4.406;2022-12-29T16:06:55;8.93;;;2.40;;
19312;SDS011;9791;50.820;4.406;2022-12-29T16:09:29;6.43;;;1.90;;
19312;SDS011;9791;50.820;4.406;2022-12-29T16:11:57;12.55;;;2.30;;
19312;SDS011;9791;50.820;4.406;2022-12-29T16:14:43;10.95;;;2.63;;
19312;SDS011;9791;50.820;4.406;2022-12-29T16:17:14;12.38;;;2.78;;
19312;SDS011;9791;50.820;4.406;2022-12-29T16:19:41;11.65;;;2.88;;
19312;SDS011;9791;50.820;4.406;2022-12-29T16:22:11;12.95;;;2.53;;
19312;SDS011;9791;50.820;4.406;2022-12-29T16:24:38;9.65;;;2.65;;
19312;SDS011;9791;50.820;4.406;2022-12-29T16:27:21;15.10;;;2.88;;
19312;SDS011;9791;50.820;4.406;2022-12-29T16:29:49;12.07;;;2.95;;
19312;SDS011;9791;50.820;4.406;2022-12-29T16:32:28;13.18;;;2.80;;
19312;SDS011;9791;50.820;4.406;2022-12-29T16:37:33;9.80;;;2.67;;
19312;SDS011;9791;50.820;4.406;2022-12-29T16:42:47;13.98;;;3.60;;
19312;SDS011;9791;50.820;4.406;2022-12-29T16:47:42;15.05;;;3.53;;
19312;SDS011;9791;50.820;4.406;2022-12-29T16:50:12;13.75;;;3.47;;
19312;SDS011;9791;50.820;4.406;2022-12-29T16:52:39;18.40;;;4.40;;
19312;SDS011;9791;50.820;4.406;2022-12-29T16:55:05;19.70;;;3.70;;
19312;SDS011;9791;50.820;4.406;2022-12-29T16:57:32;11.88;;;3.08;;
19312;SDS011;9791;50.820;4.406;2022-12-29T16:59:59;13.88;;;2.92;;
19312;SDS011;9791;50.820;4.406;2022-12-29T17:02:28;12.85;;;3.30;;
19312;SDS011;9791;50.820;4.406;2022-12-29T17:04:54;14.30;;;2.97;;
19312;SDS011;9791;50.820;4.406;2022-12-29T17:07:22;13.50;;;3.75;;
19312;SDS011;9791;50.820;4.406;2022-12-29T17:09:48;11.07;;;2.63;;
19312;SDS011;9791;50.820;4.406;2022-12-29T17:12:23;18.35;;;2.95;;
19312;SDS011;9791;50.820;4.406;2022-12-29T17:17:43;18.42;;;3.22;;
19312;SDS011;9791;50.820;4.406;2022-12-29T17:22:48;13.93;;;3.25;;
19312;SDS011;9791;50.820;4.406;2022-12-29T17:25:19;12.93;;;3.20;;
19312;SDS011;9791;50.820;4.406;2022-12-29T17:30:15;15.68;;;2.83;;
19312;SDS011;9791;50.820;4.406;2022-12-29T17:32:42;12.73;;;2.53;;
19312;SDS011;9791;50.820;4.406;2022-12-29T17:35:13;10.73;;;2.40;;
19312;SDS011;9791;50.820;4.406;2022-12-29T17:37:39;15.20;;;3.33;;
19312;SDS011;9791;50.820;4.406;2022-12-29T17:40:06;11.48;;;2.90;;
19312;SDS011;9791;50.820;4.406;2022-12-29T17:42:33;17.60;;;2.92;;
19312;SDS011;9791;50.820;4.406;2022-12-29T17:45:00;13.85;;;3.03;;
19312;SDS011;9791;50.820;4.406;2022-12-29T17:47:27;13.27;;;3.30;;
19312;SDS011;9791;50.820;4.406;2022-12-29T17:49:53;16.98;;;3.10;;
19312;SDS011;9791;50.820;4.406;2022-12-29T17:52:19;11.20;;;2.70;;
19312;SDS011;9791;50.820;4.406;2022-12-29T17:54:50;12.07;;;2.35;;